Time;durP1;ratioP1;P1;durP2;ratioP2;P2;SDS_P1;SDS_P2;PMS_P1;PMS_P2;Temp;Humidity;BMP_temperature;BMP_pressure;BME280_temperature;BME280_humidity;BME280_pressure;Samples;Min_cycle;Max_cycle;Signal;HPM_P1;HPM_P2
2022/11/15 00:02:23;;;;;;;348.70;335.90;;;9.30;99.90;;;;;;4938694;29;20465;-84
2022/11/15 00:04:50;;;;;;;356.27;342.93;;;9.50;99.90;;;;;;4939418;29;20463;-83
2022/11/15 00:07:16;;;;;;;350.10;337.30;;;9.50;99.90;;;;;;4938857;29;20467;-86
2022/11/15 00:09:43;;;;;;;348.90;336.40;;;9.40;99.90;;;;;;4939754;29;20951;-84
2022/11/15 00:12:10;;;;;;;348.20;335.20;;;9.50;99.90;;;;;;4939079;29;20467;-84
2022/11/15 00:14:37;;;;;;;365.10;351.80;;;9.50;99.90;;;;;;4938517;29;20456;-85
2022/11/15 00:17:05;;;;;;;354.40;341.30;;;9.50;99.90;;;;;;4939018;29;20470;-85
2022/11/15 00:19:31;;;;;;;368.83;355.10;;;9.50;99.90;;;;;;4938899;29;20992;-84
2022/11/15 00:21:58;;;;;;;378.93;364.83;;;9.60;99.90;;;;;;4938672;29;20930;-84
2022/11/15 00:24:25;;;;;;;383.27;369.10;;;9.60;99.90;;;;;;4938864;29;20464;-84
2022/11/15 00:26:52;;;;;;;384.80;370.60;;;9.70;99.90;;;;;;4939180;29;20453;-84
2022/11/15 00:29:18;;;;;;;400.53;384.73;;;9.80;99.90;;;;;;4938120;29;20488;-84
2022/11/15 00:31:45;;;;;;;409.27;393.60;;;9.70;99.90;;;;;;4938935;29;20843;-83
2022/11/15 00:34:13;;;;;;;405.70;390.03;;;9.80;99.90;;;;;;4942147;29;20832;-84
2022/11/15 00:36:40;;;;;;;423.10;406.53;;;9.80;99.90;;;;;;4942398;29;20464;-85
2022/11/15 00:39:07;;;;;;;422.97;406.10;;;9.80;99.90;;;;;;4941987;29;20480;-84
2022/11/15 00:41:34;;;;;;;425.63;409.03;;;9.90;99.90;;;;;;4941690;29;20486;-83
2022/11/15 00:44:00;;;;;;;431.93;414.67;;;9.90;99.90;;;;;;4941968;29;20461;-85
2022/11/15 00:46:27;;;;;;;432.20;415.03;;;9.90;99.90;;;;;;4941862;29;20468;-84
2022/11/15 00:48:54;;;;;;;439.90;422.30;;;9.90;99.90;;;;;;4942026;29;20898;-84
2022/11/15 00:51:22;;;;;;;429.70;412.67;;;9.90;99.90;;;;;;4941638;29;20468;-84
2022/11/15 00:53:49;;;;;;;442.37;424.77;;;9.90;99.90;;;;;;4941688;29;20460;-84
2022/11/15 00:56:15;;;;;;;454.87;435.57;;;9.90;99.90;;;;;;4942004;29;20951;-84
2022/11/15 00:58:42;;;;;;;456.80;438.53;;;10.00;99.90;;;;;;4941843;29;20487;-84
2022/11/15 01:01:11;;;;;;;452.93;434.80;;;10.00;99.90;;;;;;4941865;29;20868;-84
2022/11/15 01:03:39;;;;;;;463.07;443.57;;;10.00;99.90;;;;;;4941916;29;20465;-84
2022/11/15 01:06:06;;;;;;;477.77;457.07;;;10.00;99.90;;;;;;4942003;29;20940;-86
2022/11/15 01:08:35;;;;;;;464.63;444.83;;;10.00;99.90;;;;;;4941732;29;20899;-84
2022/11/15 01:11:02;;;;;;;453.23;434.53;;;10.10;99.90;;;;;;4941564;29;20452;-84
2022/11/15 01:13:32;;;;;;;448.50;429.80;;;10.20;99.90;;;;;;4941881;29;20464;-84
2022/11/15 01:15:59;;;;;;;449.27;430.80;;;10.10;99.90;;;;;;4941969;29;20456;-84
2022/11/15 01:18:25;;;;;;;450.97;432.50;;;10.10;99.90;;;;;;4941407;29;20548;-85
2022/11/15 01:20:52;;;;;;;459.57;440.37;;;10.10;99.90;;;;;;4941458;29;20477;-86
2022/11/15 01:23:19;;;;;;;479.80;459.50;;;10.00;99.90;;;;;;4941726;29;20461;-84
2022/11/15 01:25:47;;;;;;;492.33;471.03;;;10.00;99.90;;;;;;4941558;29;20463;-84
2022/11/15 01:28:14;;;;;;;503.47;481.27;;;10.00;99.90;;;;;;4941352;29;20488;-84
2022/11/15 01:30:40;;;;;;;516.97;492.97;;;10.00;99.90;;;;;;4940394;29;20975;-85
2022/11/15 01:33:07;;;;;;;531.17;505.90;;;10.00;99.90;;;;;;4941044;29;20460;-83
2022/11/15 01:35:34;;;;;;;551.73;524.67;;;9.90;99.90;;;;;;4941313;29;20457;-84
2022/11/15 01:38:01;;;;;;;559.80;532.43;;;10.00;99.90;;;;;;4941506;29;20480;-84
2022/11/15 01:40:27;;;;;;;570.83;542.50;;;9.90;99.90;;;;;;4940431;29;20491;-85
2022/11/15 01:42:55;;;;;;;594.43;563.27;;;9.90;99.90;;;;;;4941393;29;20463;-84
2022/11/15 01:45:22;;;;;;;590.13;558.57;;;10.00;99.90;;;;;;4940351;29;20467;-84
2022/11/15 01:47:54;;;;;;;585.37;553.67;;;10.00;99.90;;;;;;4940442;29;21020;-84
2022/11/15 01:50:25;;;;;;;586.07;554.30;;;10.00;99.90;;;;;;4940933;29;20457;-84
2022/11/15 01:52:52;;;;;;;577.87;546.30;;;10.10;99.90;;;;;;4940651;29;20461;-84
2022/11/15 01:55:23;;;;;;;567.43;536.20;;;10.20;99.90;;;;;;4940967;29;20967;-84
2022/11/15 01:57:54;;;;;;;543.73;515.00;;;10.30;99.90;;;;;;4941212;29;20481;-86
2022/11/15 02:00:22;;;;;;;523.63;496.90;;;10.30;99.90;;;;;;4940475;29;20464;-84
2022/11/15 02:02:49;;;;;;;510.50;486.00;;;10.30;99.90;;;;;;4940512;29;20467;-84
2022/11/15 02:05:16;;;;;;;498.43;474.50;;;10.30;99.90;;;;;;4941232;29;20461;-84
2022/11/15 02:07:43;;;;;;;480.87;458.13;;;10.30;99.90;;;;;;4941392;29;20488;-84
2022/11/15 02:10:12;;;;;;;472.47;450.87;;;10.40;99.90;;;;;;4941288;29;20466;-84
2022/11/15 02:12:39;;;;;;;467.40;446.10;;;10.50;99.90;;;;;;4941145;29;20457;-84
2022/11/15 02:15:09;;;;;;;450.60;430.47;;;10.40;99.90;;;;;;4940915;29;20463;-84
2022/11/15 02:17:54;;;;;;;444.07;424.97;;;10.50;99.90;;;;;;4941197;29;20473;-84
2022/11/15 02:20:43;;;;;;;445.13;426.37;;;10.50;99.90;;;;;;4940326;29;20463;-84
2022/11/15 02:23:55;;;;;;;458.57;438.37;;;10.50;99.90;;;;;;4940550;29;20453;-85
2022/11/15 02:27:13;;;;;;;457.33;437.80;;;10.50;99.90;;;;;;4940945;29;20481;-84
2022/11/15 02:29:56;;;;;;;476.67;455.57;;;10.50;99.90;;;;;;4929922;29;20463;-83
2022/11/15 02:32:32;;;;;;;479.50;457.47;;;10.50;99.90;;;;;;4940018;29;20465;-84
2022/11/15 02:35:03;;;;;;;484.50;463.17;;;10.50;99.90;;;;;;4941061;29;20468;-84
2022/11/15 02:37:35;;;;;;;493.57;471.47;;;10.50;99.90;;;;;;4941134;29;20461;-86
2022/11/15 02:40:12;;;;;;;498.73;475.43;;;10.50;99.90;;;;;;4940419;29;20464;-84
2022/11/15 02:45:34;;;;;;;518.40;491.47;;;10.50;99.90;;;;;;4939638;29;20535;-83
2022/11/15 02:48:05;;;;;;;530.53;504.37;;;10.50;99.90;;;;;;4940221;29;20496;-86
2022/11/15 02:50:33;;;;;;;528.77;502.73;;;10.50;99.90;;;;;;4939913;29;20548;-84
2022/11/15 02:53:00;;;;;;;535.07;508.27;;;10.50;99.90;;;;;;4939959;29;20910;-84
2022/11/15 02:55:29;;;;;;;548.70;519.80;;;10.60;99.90;;;;;;4939717;29;20664;-83
2022/11/15 02:58:15;;;;;;;545.93;517.17;;;10.60;99.90;;;;;;4939576;29;21029;-84
2022/11/15 03:00:48;;;;;;;544.77;516.87;;;10.60;99.90;;;;;;4939249;29;20460;-84
2022/11/15 03:03:35;;;;;;;553.37;524.60;;;10.60;99.90;;;;;;4940552;29;20456;-84
2022/11/15 03:06:13;;;;;;;541.07;513.00;;;10.60;99.90;;;;;;4940455;29;20464;-85
2022/11/15 03:08:51;;;;;;;548.43;520.00;;;10.70;99.90;;;;;;4939510;29;20480;-85
2022/11/15 03:11:20;;;;;;;553.13;523.83;;;10.70;99.90;;;;;;4939439;29;20458;-87
2022/11/15 03:13:54;;;;;;;553.97;524.53;;;10.70;99.90;;;;;;4939568;29;20461;-85
2022/11/15 03:16:28;;;;;;;553.53;524.00;;;10.70;99.90;;;;;;4939318;29;20960;-84
2022/11/15 03:19:00;;;;;;;561.13;530.83;;;10.80;99.90;;;;;;4939706;29;20476;-84
2022/11/15 03:21:30;;;;;;;547.07;517.90;;;10.80;99.90;;;;;;4939167;29;20480;-84
2022/11/15 03:24:01;;;;;;;536.17;507.80;;;10.80;99.90;;;;;;4939644;29;20460;-84
2022/11/15 03:26:30;;;;;;;547.50;518.73;;;10.80;99.90;;;;;;4939153;29;20465;-84
2022/11/15 03:29:01;;;;;;;548.57;518.37;;;10.80;99.90;;;;;;4939502;29;20542;-86
2022/11/15 03:31:49;;;;;;;537.30;509.10;;;10.90;99.90;;;;;;4938473;29;20455;-84
2022/11/15 03:34:23;;;;;;;524.50;497.00;;;10.90;99.90;;;;;;4939093;29;20515;-84
2022/11/15 03:36:51;;;;;;;511.67;485.20;;;10.90;99.90;;;;;;4939519;29;20456;-84
2022/11/15 03:39:19;;;;;;;503.47;477.97;;;10.90;99.90;;;;;;4939474;29;21014;-85
2022/11/15 03:41:50;;;;;;;505.67;480.70;;;10.80;99.90;;;;;;4939072;29;20508;-83
2022/11/15 03:44:27;;;;;;;508.90;484.00;;;10.80;99.90;;;;;;4939391;29;20452;-85
2022/11/15 03:47:01;;;;;;;515.63;489.77;;;10.90;99.90;;;;;;4939144;29;20480;-84
2022/11/15 03:49:33;;;;;;;527.43;501.03;;;10.80;99.90;;;;;;4939170;29;20503;-86
2022/11/15 03:52:02;;;;;;;537.50;509.50;;;10.80;99.90;;;;;;4938853;29;20971;-84
2022/11/15 03:54:29;;;;;;;537.93;508.93;;;10.90;99.90;;;;;;4938916;29;20817;-85
2022/11/15 03:56:56;;;;;;;538.07;509.70;;;10.80;99.90;;;;;;4939617;29;20466;-84
2022/11/15 03:59:23;;;;;;;540.17;512.47;;;11.00;99.90;;;;;;4939311;29;21026;-87
2022/11/15 04:01:50;;;;;;;547.43;518.93;;;10.90;99.90;;;;;;4939093;29;20484;-84
2022/11/15 04:04:16;;;;;;;541.73;513.63;;;10.90;99.90;;;;;;4939407;29;20457;-84
2022/11/15 04:06:44;;;;;;;543.20;515.33;;;11.00;99.90;;;;;;4938594;29;20457;-85
2022/11/15 04:09:11;;;;;;;541.20;512.83;;;11.10;99.90;;;;;;4938666;29;20469;-84
2022/11/15 04:11:38;;;;;;;529.27;501.77;;;11.00;99.90;;;;;;4938543;29;20461;-84
2022/11/15 04:14:05;;;;;;;518.63;492.37;;;11.10;99.90;;;;;;4938873;29;20465;-85
2022/11/15 04:16:31;;;;;;;501.47;476.30;;;11.10;99.90;;;;;;4938951;29;20978;-85
2022/11/15 04:24:28;;;;;;;454.00;433.00;;;11.30;99.90;;;;;;4938479;29;20573;-86
2022/11/15 04:26:54;;;;;;;442.33;422.60;;;11.30;99.90;;;;;;4938768;29;20468;-84
2022/11/15 04:29:36;;;;;;;439.47;420.47;;;11.30;99.90;;;;;;4938165;29;20852;-83
2022/11/15 04:32:03;;;;;;;445.90;426.53;;;11.40;99.90;;;;;;4939044;29;20452;-84
2022/11/15 04:34:30;;;;;;;427.87;409.57;;;11.20;99.90;;;;;;4939033;29;20460;-85
2022/11/15 04:37:13;;;;;;;437.33;418.90;;;11.30;99.90;;;;;;4939342;29;20457;-85
2022/11/15 04:39:40;;;;;;;437.97;419.63;;;11.30;99.90;;;;;;4938566;29;20979;-84
2022/11/15 04:42:08;;;;;;;445.33;426.37;;;11.40;99.90;;;;;;4938608;29;20484;-84
2022/11/15 04:44:35;;;;;;;444.30;425.40;;;11.20;99.90;;;;;;4938970;29;20461;-84
2022/11/15 04:47:02;;;;;;;452.70;433.10;;;11.20;99.90;;;;;;4938679;29;20468;-84
2022/11/15 04:49:29;;;;;;;452.97;433.03;;;11.20;99.90;;;;;;4937897;29;20740;-84
2022/11/15 04:51:55;;;;;;;450.77;431.17;;;11.20;99.90;;;;;;4938230;29;20460;-85
2022/11/15 04:54:23;;;;;;;453.70;434.17;;;11.20;99.90;;;;;;4938625;29;20468;-84
2022/11/15 04:56:51;;;;;;;451.83;431.07;;;11.20;99.90;;;;;;4938674;29;20464;-85
2022/11/15 04:59:18;;;;;;;450.90;431.10;;;11.20;99.90;;;;;;4939181;29;20475;-84
2022/11/15 05:01:45;;;;;;;442.50;423.70;;;11.20;99.90;;;;;;4938524;29;20481;-84
2022/11/15 05:04:19;;;;;;;439.90;420.40;;;11.20;99.90;;;;;;4938690;29;20957;-86
2022/11/15 05:06:47;;;;;;;438.13;419.10;;;11.20;99.90;;;;;;4938166;29;20456;-84
2022/11/15 05:09:14;;;;;;;440.23;421.37;;;11.20;99.90;;;;;;4938440;29;20481;-86
2022/11/15 05:11:42;;;;;;;442.00;422.80;;;11.20;99.90;;;;;;4938405;29;20457;-84
2022/11/15 05:14:09;;;;;;;440.23;420.90;;;11.20;99.90;;;;;;4938879;29;20461;-85
2022/11/15 05:16:36;;;;;;;436.00;416.90;;;11.20;99.90;;;;;;4939032;29;20524;-84
2022/11/15 05:19:04;;;;;;;426.23;407.97;;;11.20;99.90;;;;;;4939238;29;20476;-84
2022/11/15 05:21:31;;;;;;;423.90;406.10;;;11.20;99.90;;;;;;4942111;29;20476;-84
2022/11/15 05:23:57;;;;;;;435.27;415.80;;;11.20;99.90;;;;;;4941331;29;20495;-82
2022/11/15 05:26:24;;;;;;;428.83;410.00;;;11.20;99.90;;;;;;4940952;29;20464;-84
2022/11/15 05:28:55;;;;;;;432.90;413.97;;;11.20;99.90;;;;;;4941361;29;20476;-87
2022/11/15 05:31:22;;;;;;;423.70;405.40;;;11.10;99.90;;;;;;4940305;29;20488;-86
2022/11/15 05:33:51;;;;;;;432.43;413.77;;;11.20;99.90;;;;;;4941630;29;20817;-84
2022/11/15 05:36:22;;;;;;;426.23;407.77;;;11.10;99.90;;;;;;4940885;29;20460;-85
2022/11/15 05:38:49;;;;;;;426.00;407.57;;;11.20;99.90;;;;;;4941375;29;20480;-84
2022/11/15 05:41:18;;;;;;;423.27;404.57;;;11.20;99.90;;;;;;4940417;29;20452;-85
2022/11/15 05:43:46;;;;;;;430.77;411.70;;;11.10;99.90;;;;;;4941274;29;20457;-84
2022/11/15 05:46:15;;;;;;;425.17;406.07;;;11.20;99.90;;;;;;4941010;29;20460;-84
2022/11/15 05:48:43;;;;;;;422.53;403.80;;;11.20;99.90;;;;;;4941162;29;20547;-83
2022/11/15 05:51:10;;;;;;;420.70;402.60;;;11.20;99.90;;;;;;4941211;29;20456;-87
2022/11/15 05:53:38;;;;;;;414.30;395.70;;;11.30;99.90;;;;;;4941124;29;20832;-84
2022/11/15 05:56:06;;;;;;;400.37;383.47;;;11.20;99.90;;;;;;4940431;29;20983;-86
2022/11/15 05:58:33;;;;;;;405.03;387.23;;;11.20;99.90;;;;;;4940736;29;20543;-85
2022/11/15 06:01:01;;;;;;;402.33;385.20;;;11.20;99.90;;;;;;4940880;29;20463;-84
2022/11/15 06:03:29;;;;;;;407.23;390.17;;;11.20;99.90;;;;;;4941323;29;20492;-85
2022/11/15 06:05:56;;;;;;;422.47;403.93;;;11.20;99.90;;;;;;4940540;29;20467;-84
2022/11/15 06:08:23;;;;;;;435.80;417.10;;;11.10;99.90;;;;;;4940823;29;20487;-85
2022/11/15 06:10:50;;;;;;;453.97;433.20;;;11.10;99.90;;;;;;4940724;29;20460;-84
2022/11/15 06:13:17;;;;;;;459.17;438.93;;;11.00;99.90;;;;;;4940494;29;20474;-84
2022/11/15 06:15:43;;;;;;;483.77;461.77;;;10.90;99.90;;;;;;4941476;29;20456;-86
2022/11/15 06:18:10;;;;;;;499.33;477.10;;;10.90;99.90;;;;;;4940746;29;20851;-84
2022/11/15 06:20:38;;;;;;;517.23;493.77;;;10.80;99.90;;;;;;4940841;29;20835;-84
2022/11/15 06:23:05;;;;;;;532.40;507.77;;;10.80;99.90;;;;;;4940488;29;20484;-85
2022/11/15 06:25:32;;;;;;;552.40;526.67;;;10.80;99.90;;;;;;4940922;29;20460;-84
2022/11/15 06:27:59;;;;;;;570.97;544.37;;;10.70;99.90;;;;;;4940499;29;20850;-85
2022/11/15 06:30:27;;;;;;;599.97;572.10;;;10.60;99.90;;;;;;4940302;29;20521;-86
2022/11/15 06:33:01;;;;;;;618.10;589.13;;;10.40;99.90;;;;;;4940911;29;20540;-84
2022/11/15 06:35:28;;;;;;;663.00;630.77;;;10.30;99.90;;;;;;4941169;29;20445;-84
2022/11/15 06:37:56;;;;;;;673.10;640.10;;;10.10;99.90;;;;;;4941144;29;20480;-84
2022/11/15 06:40:22;;;;;;;689.10;653.73;;;10.10;99.90;;;;;;4941125;29;20542;-84
2022/11/15 06:42:49;;;;;;;733.37;694.77;;;10.00;99.90;;;;;;4941323;29;20488;-85
2022/11/15 06:45:16;;;;;;;725.87;686.87;;;9.90;99.90;;;;;;4940823;29;20476;-84
2022/11/15 06:47:46;;;;;;;728.83;689.70;;;9.90;99.90;;;;;;4940635;29;20495;-84
2022/11/15 06:50:13;;;;;;;736.97;697.50;;;9.80;99.90;;;;;;4940231;29;20464;-85
2022/11/15 06:52:49;;;;;;;;;;;;;;;;;;;;;
2022/11/15 06:55:18;;;;;;;746.63;703.77;;;9.70;99.90;;;;;;4940669;29;20515;-84
2022/11/15 06:57:56;;;;;;;757.47;712.80;;;9.60;99.90;;;;;;4940483;29;20485;-84
2022/11/15 07:00:23;;;;;;;764.00;718.57;;;9.70;99.90;;;;;;4940237;29;20820;-84
2022/11/15 07:02:50;;;;;;;751.87;707.30;;;9.60;99.90;;;;;;4939396;29;20476;-84
2022/11/15 07:05:17;;;;;;;730.53;687.33;;;9.70;99.90;;;;;;4940893;29;20461;-85
2022/11/15 07:08:27;;;;;;;722.17;679.20;;;9.80;99.90;;;;;;4940969;29;20472;-84
2022/11/15 07:10:58;;;;;;;709.43;668.00;;;9.80;99.90;;;;;;4940482;29;20856;-84
2022/11/15 07:14:03;;;;;;;672.93;634.00;;;9.90;99.90;;;;;;4941411;29;20448;-86
2022/11/15 07:16:39;;;;;;;652.20;615.90;;;10.00;99.90;;;;;;4940549;29;20498;-83
2022/11/15 07:19:05;;;;;;;639.47;604.80;;;10.00;99.90;;;;;;4940807;29;20476;-85
2022/11/15 07:21:33;;;;;;;606.77;574.50;;;10.10;99.90;;;;;;4939609;29;20456;-84
2022/11/15 07:24:14;;;;;;;510.10;484.70;;;10.20;99.90;;;;;;4941148;29;20457;-84
2022/11/15 07:26:46;;;;;;;454.57;433.27;;;10.30;99.90;;;;;;4940927;29;20463;-84
2022/11/15 07:29:13;;;;;;;406.33;388.63;;;10.50;99.90;;;;;;4939683;29;20476;-85
2022/11/15 07:35:19;;;;;;;263.90;253.43;;;10.80;99.90;;;;;;4886956;29;20492;-85
2022/11/15 07:38:20;;;;;;;172.00;165.57;;;11.00;99.90;;;;;;4940014;29;20501;-84
2022/11/15 07:43:58;;;;;;;26.60;25.13;;;11.50;99.90;;;;;;4927027;29;20500;-85
2022/11/15 07:46:25;;;;;;;15.70;14.53;;;11.60;99.90;;;;;;4939501;29;20460;-85
2022/11/15 07:51:59;;;;;;;6.80;6.20;;;11.70;99.90;;;;;;4860847;29;20998;-84
2022/11/15 08:05:00;;;;;;;7.43;4.40;;;11.80;99.90;;;;;;4755525;29;20553;-85
2022/11/15 08:07:30;;;;;;;5.57;4.63;;;11.90;99.90;;;;;;4869847;29;20977;-85
2022/11/15 08:09:57;;;;;;;9.10;4.63;;;11.80;99.90;;;;;;4930131;29;20452;-83
2022/11/15 08:12:24;;;;;;;6.20;3.70;;;11.80;99.90;;;;;;4939816;29;20878;-85
2022/11/15 08:14:51;;;;;;;8.97;4.20;;;11.70;99.90;;;;;;4940073;29;20495;-82
2022/11/15 08:17:18;;;;;;;5.30;3.33;;;11.70;99.90;;;;;;4939127;29;20486;-84
2022/11/15 08:19:45;;;;;;;7.90;3.00;;;11.60;99.90;;;;;;4937728;29;20556;-85
2022/11/15 08:22:13;;;;;;;6.53;2.40;;;11.60;99.90;;;;;;4937846;29;20896;-84
2022/11/15 08:24:39;;;;;;;7.40;3.50;;;11.50;99.90;;;;;;4938559;29;20456;-87
2022/11/15 08:27:14;;;;;;;4.90;2.80;;;11.50;99.90;;;;;;4938930;29;20471;-83
2022/11/15 08:29:42;;;;;;;5.07;3.10;;;11.50;99.90;;;;;;4938131;29;20460;-84
2022/11/15 08:32:09;;;;;;;5.10;2.70;;;11.50;99.90;;;;;;4938361;29;20801;-83
2022/11/15 08:34:36;;;;;;;5.17;2.90;;;11.60;99.90;;;;;;4938957;29;20461;-85
2022/11/15 08:37:02;;;;;;;5.70;3.10;;;11.60;99.90;;;;;;4938329;29;20460;-84
2022/11/15 08:39:31;;;;;;;4.30;2.40;;;11.80;99.90;;;;;;4938166;29;21089;-84
2022/11/15 08:42:16;;;;;;;;;;;;;;;;;;;;;
2022/11/15 08:44:43;;;;;;;6.15;2.30;;;11.90;99.90;;;;;;4940545;29;20491;-84
2022/11/15 08:47:13;;;;;;;4.27;1.90;;;12.00;99.90;;;;;;4939383;29;20692;-86
2022/11/15 08:49:40;;;;;;;8.50;1.93;;;12.00;99.90;;;;;;4938409;29;21031;-84
2022/11/15 08:52:07;;;;;;;4.20;1.80;;;12.00;99.90;;;;;;4938470;29;20463;-84
2022/11/15 08:54:35;;;;;;;4.30;1.77;;;12.20;99.90;;;;;;4941359;29;20463;-84
2022/11/15 08:57:01;;;;;;;3.77;1.80;;;12.10;99.90;;;;;;4942357;29;20454;-84
2022/11/15 08:59:28;;;;;;;4.87;1.60;;;12.10;99.90;;;;;;4942454;29;20564;-84
2022/11/15 09:01:55;;;;;;;4.53;1.73;;;12.20;99.90;;;;;;4941830;29;20460;-84
2022/11/15 09:04:22;;;;;;;4.30;1.50;;;12.20;99.90;;;;;;4942202;29;20485;-84
2022/11/15 09:06:49;;;;;;;4.43;1.73;;;12.30;99.90;;;;;;4942124;29;20467;-84
2022/11/15 09:09:15;;;;;;;6.03;2.40;;;12.30;99.90;;;;;;4941698;29;20553;-84
2022/11/15 09:11:43;;;;;;;5.23;2.70;;;12.40;99.90;;;;;;4942045;29;20463;-84
2022/11/15 09:14:12;;;;;;;5.40;2.50;;;12.50;99.90;;;;;;4942676;29;20457;-84
2022/11/15 09:16:39;;;;;;;4.77;1.90;;;12.50;99.90;;;;;;4941993;29;20461;-84
2022/11/15 09:19:05;;;;;;;5.07;1.53;;;12.50;98.70;;;;;;4941886;29;20488;-84
2022/11/15 09:21:33;;;;;;;5.60;1.70;;;12.50;98.10;;;;;;4942253;29;20463;-84
2022/11/15 09:23:59;;;;;;;6.53;1.93;;;12.50;98.60;;;;;;4942013;29;20484;-84
2022/11/15 09:26:26;;;;;;;4.33;1.90;;;12.40;99.40;;;;;;4942475;29;20460;-85
2022/11/15 09:28:54;;;;;;;4.77;2.10;;;12.40;98.60;;;;;;4942353;29;20564;-84
2022/11/15 09:31:21;;;;;;;5.70;2.20;;;12.40;99.00;;;;;;4941661;29;20471;-84
2022/11/15 09:33:48;;;;;;;9.17;2.27;;;12.50;99.70;;;;;;4942063;29;20457;-84
2022/11/15 09:36:14;;;;;;;4.43;2.37;;;12.50;99.50;;;;;;4941265;29;20462;-87
2022/11/15 09:38:41;;;;;;;5.03;2.30;;;12.50;99.70;;;;;;4942037;29;20503;-84
2022/11/15 09:41:23;;;;;;;5.97;2.43;;;12.50;99.80;;;;;;4941727;29;20465;-84
2022/11/15 09:44:01;;;;;;;6.03;2.10;;;12.60;98.80;;;;;;4941674;29;20481;-85
2022/11/15 09:46:50;;;;;;;7.57;1.97;;;12.60;98.30;;;;;;4941145;29;20541;-84
2022/11/15 09:49:19;;;;;;;3.77;1.30;;;12.60;98.10;;;;;;4941932;29;20786;-84
2022/11/15 09:51:48;;;;;;;8.03;1.50;;;12.70;95.60;;;;;;4942179;29;20463;-84
2022/11/15 09:54:27;;;;;;;4.50;1.50;;;12.70;94.80;;;;;;4941620;29;20449;-84
2022/11/15 09:56:56;;;;;;;3.70;1.53;;;12.70;94.30;;;;;;4941795;29;20461;-85
2022/11/15 09:59:45;;;;;;;4.67;1.70;;;12.70;95.00;;;;;;4941813;29;20481;-84
2022/11/15 10:02:28;;;;;;;3.50;1.30;;;12.80;94.10;;;;;;4941676;29;20551;-84
2022/11/15 10:04:55;;;;;;;5.57;2.23;;;12.90;93.50;;;;;;4940355;29;20831;-84
2022/11/15 10:07:27;;;;;;;8.30;1.40;;;13.00;95.60;;;;;;4941326;29;20457;-84
2022/11/15 10:09:57;;;;;;;4.50;1.60;;;13.10;94.20;;;;;;4941238;29;20952;-84
2022/11/15 10:12:25;;;;;;;6.60;1.77;;;13.30;94.60;;;;;;4940491;29;20484;-87
2022/11/15 10:15:00;;;;;;;3.50;1.23;;;13.30;94.90;;;;;;4940690;29;20463;-81
2022/11/15 10:17:57;;;;;;;4.30;1.20;;;13.30;92.50;;;;;;4941813;29;20461;-84
2022/11/15 10:20:26;;;;;;;3.83;1.27;;;13.40;92.40;;;;;;4936147;29;20548;-85
2022/11/15 10:22:56;;;;;;;5.03;1.23;;;13.60;91.30;;;;;;4941457;29;20535;-87
2022/11/15 10:25:24;;;;;;;4.40;1.10;;;13.70;90.60;;;;;;4941244;29;20457;-84
2022/11/15 10:27:56;;;;;;;5.33;1.30;;;13.90;90.80;;;;;;4940947;29;20487;-85
2022/11/15 10:30:32;;;;;;;5.27;1.33;;;14.10;90.00;;;;;;4939890;29;20459;-85
2022/11/15 10:32:59;;;;;;;6.47;1.20;;;14.10;88.40;;;;;;4951293;29;20468;-85
2022/11/15 10:35:29;;;;;;;3.80;1.20;;;13.90;86.90;;;;;;4953291;29;20448;-82
2022/11/15 10:41:34;;;;;;;3.80;0.97;;;13.80;88.00;;;;;;4947199;29;20552;-84
2022/11/15 10:44:23;;;;;;;4.90;1.40;;;13.80;85.50;;;;;;4948977;29;20468;-82
2022/11/15 10:47:20;;;;;;;5.63;1.60;;;13.70;85.50;;;;;;4947999;29;20574;-82
2022/11/15 10:50:01;;;;;;;4.67;1.23;;;13.60;85.70;;;;;;4953306;29;20434;-82
2022/11/15 10:52:30;;;;;;;4.33;1.10;;;13.60;81.10;;;;;;4921800;29;20521;-82
2022/11/15 10:55:01;;;;;;;5.03;1.20;;;13.70;82.60;;;;;;4922323;29;20501;-82
2022/11/15 10:57:30;;;;;;;8.37;1.60;;;13.70;81.80;;;;;;4920869;29;20502;-82
2022/11/15 11:00:00;;;;;;;5.00;1.40;;;13.60;81.70;;;;;;4950659;29;20456;-82
2022/11/15 11:02:34;;;;;;;3.70;1.00;;;13.60;80.20;;;;;;4947293;29;20672;-82
2022/11/15 11:05:03;;;;;;;4.13;1.23;;;13.50;79.10;;;;;;4946608;29;20459;-82
2022/11/15 11:07:31;;;;;;;5.10;1.33;;;13.60;80.20;;;;;;4952003;28;20467;-83
2022/11/15 11:10:00;;;;;;;5.23;0.93;;;13.70;81.40;;;;;;4949711;29;20502;-83
2022/11/15 11:12:32;;;;;;;6.57;1.20;;;13.80;77.30;;;;;;4948241;29;20987;-81
2022/11/15 11:15:00;;;;;;;4.50;1.27;;;13.80;76.10;;;;;;4944691;29;20540;-82
2022/11/15 11:17:42;;;;;;;5.17;1.20;;;13.90;78.20;;;;;;4941121;29;20460;-82
2022/11/15 11:20:20;;;;;;;3.97;1.20;;;14.20;72.90;;;;;;4943625;29;20518;-85
2022/11/15 11:23:01;;;;;;;11.87;1.80;;;14.60;71.60;;;;;;4943507;29;20515;-85
2022/11/15 11:33:24;;;;;;;3.40;0.83;;;15.20;65.70;;;;;;4864752;29;20524;-82
2022/11/15 11:36:04;;;;;;;4.67;0.80;;;15.10;63.40;;;;;;4905112;29;20509;-83
2022/11/15 11:38:44;;;;;;;5.97;1.17;;;15.10;65.60;;;;;;4904592;29;20495;-83
2022/11/15 11:41:21;;;;;;;4.90;0.83;;;15.40;65.90;;;;;;4953197;28;20454;-83
2022/11/15 11:44:00;;;;;;;6.03;1.23;;;15.60;63.50;;;;;;4978930;28;21006;-84
2022/11/15 11:46:49;;;;;;;8.40;1.50;;;15.70;60.20;;;;;;4980519;28;20483;-83
2022/11/15 11:49:20;;;;;;;11.33;1.27;;;15.80;60.00;;;;;;4981180;28;20558;-84
2022/11/15 11:52:05;;;;;;;9.30;1.40;;;15.90;56.50;;;;;;4981131;28;20513;-84
2022/11/15 11:54:42;;;;;;;5.27;1.10;;;15.80;56.50;;;;;;4983666;28;20540;-84
2022/11/15 11:57:19;;;;;;;8.93;1.30;;;16.10;58.20;;;;;;4984678;28;20628;-85
2022/11/15 11:59:54;;;;;;;4.50;1.33;;;16.00;59.40;;;;;;4981867;28;20532;-83
2022/11/15 12:02:29;;;;;;;4.30;1.30;;;16.10;59.40;;;;;;4982984;28;20443;-86
2022/11/15 12:05:08;;;;;;;6.13;1.10;;;15.90;58.90;;;;;;4979484;28;20459;-84
2022/11/15 12:07:38;;;;;;;6.37;1.17;;;15.70;61.50;;;;;;4980052;28;20476;-85
2022/11/15 12:10:15;;;;;;;4.27;1.23;;;15.60;62.20;;;;;;4980281;28;20522;-83
2022/11/15 12:12:51;;;;;;;4.83;1.00;;;15.50;63.20;;;;;;4981663;28;20454;-84
2022/11/15 12:15:21;;;;;;;4.77;1.13;;;15.50;66.00;;;;;;4978649;28;20529;-84
2022/11/15 12:17:49;;;;;;;4.37;0.97;;;15.50;64.60;;;;;;4982386;28;20478;-84
2022/11/15 12:20:21;;;;;;;7.37;1.20;;;15.50;65.40;;;;;;4981203;28;20487;-86
2022/11/15 12:22:55;;;;;;;7.60;1.20;;;15.80;63.40;;;;;;4981159;28;20539;-85
2022/11/15 12:25:28;;;;;;;5.97;1.10;;;16.10;65.10;;;;;;4981607;28;20515;-85
2022/11/15 12:27:59;;;;;;;7.17;1.30;;;16.00;61.50;;;;;;4981610;28;20480;-85
2022/11/15 12:30:30;;;;;;;7.20;1.20;;;16.20;61.20;;;;;;4984983;28;20464;-84
2022/11/15 12:32:59;;;;;;;4.17;1.07;;;16.60;61.80;;;;;;4984763;28;20457;-84
2022/11/15 12:35:31;;;;;;;5.60;1.37;;;17.40;59.40;;;;;;4986499;28;20451;-84
2022/11/15 12:38:00;;;;;;;7.00;1.10;;;17.80;56.90;;;;;;4983803;28;20550;-83
2022/11/15 12:40:35;;;;;;;8.13;1.00;;;17.70;55.80;;;;;;4985449;28;20462;-84
2022/11/15 12:43:30;;;;;;;7.10;1.10;;;18.20;54.40;;;;;;4982067;28;20461;-84
2022/11/15 12:46:06;;;;;;;4.67;1.40;;;18.30;54.50;;;;;;4980507;28;20460;-85
2022/11/15 12:48:53;;;;;;;5.70;0.97;;;18.50;55.50;;;;;;4982576;28;20466;-84
2022/11/15 12:51:22;;;;;;;4.43;0.97;;;18.40;53.60;;;;;;4983702;28;20455;-85
2022/11/15 12:53:50;;;;;;;4.20;0.97;;;18.30;52.90;;;;;;4984507;28;20481;-84
2022/11/15 12:56:22;;;;;;;7.60;1.30;;;17.90;55.20;;;;;;4981127;28;20457;-84
2022/11/15 12:58:52;;;;;;;4.00;1.10;;;17.30;58.40;;;;;;4982742;28;20829;-83
2022/11/15 13:01:56;;;;;;;4.77;1.27;;;16.90;59.00;;;;;;4984519;28;20489;-84
2022/11/15 13:04:27;;;;;;;10.07;1.57;;;16.10;62.90;;;;;;4980711;28;20453;-83
2022/11/15 13:06:56;;;;;;;6.97;1.30;;;15.80;64.70;;;;;;4979867;28;20544;-83
2022/11/15 13:09:54;;;;;;;6.33;1.80;;;15.40;66.80;;;;;;4981366;28;20485;-83
2022/11/15 13:12:53;;;;;;;6.47;1.10;;;15.00;69.60;;;;;;4981016;28;20956;-85
2022/11/15 13:15:56;;;;;;;5.30;1.50;;;14.80;72.40;;;;;;4979675;28;20487;-83
2022/11/15 13:18:35;;;;;;;4.50;1.37;;;14.60;74.10;;;;;;4968575;28;20477;-82
2022/11/15 13:22:50;;;;;;;7.70;1.10;;;14.60;73.80;;;;;;4979869;28;20537;-83
2022/11/15 13:23:55;;;;;;;4.47;0.97;;;14.70;73.70;;;;;;4979525;28;20478;-84
2022/11/15 13:26:25;;;;;;;13.63;1.90;;;14.70;73.80;;;;;;4979952;28;20457;-82
2022/11/15 13:28:55;;;;;;;8.40;1.40;;;14.80;73.50;;;;;;4979733;28;20478;-83
2022/11/15 13:31:31;;;;;;;5.40;1.20;;;14.90;74.70;;;;;;4980008;28;20788;-84